Time;durP1;ratioP1;P1;durP2;ratioP2;P2;SDS_P1;SDS_P2;PMS_P1;PMS_P2;Temp;Humidity;BMP_temperature;BMP_pressure;BME280_temperature;BME280_humidity;BME280_pressure;Samples;Min_cycle;Max_cycle;Signal;HPM_P1;HPM_P2
2023/03/13 00:01:01;;;;;;;;;7.75;7.75;;;;;9.17;85.50;100034.59;5027329;28;11108;-65
2023/03/13 00:03:28;;;;;;;;;3.50;2.00;;;;;9.15;85.01;100039.34;5022975;28;10598;-66
2023/03/13 00:05:58;;;;;;;;;9.50;7.25;;;;;9.18;85.79;100035.44;5030572;28;10576;-66
2023/03/13 00:08:27;;;;;;;;;6.25;6.00;;;;;9.17;85.16;100023.88;5029663;28;10525;-66
2023/03/13 00:10:54;;;;;;;;;8.50;6.25;;;;;9.17;85.55;100010.44;5023034;28;11504;-66
2023/03/13 00:13:21;;;;;;;;;6.00;6.00;;;;;9.20;85.47;100011.91;5013296;28;10540;-66
2023/03/13 00:15:47;;;;;;;;;8.00;7.00;;;;;9.18;85.51;100006.72;5025393;28;10461;-65
2023/03/13 00:18:14;;;;;;;;;6.00;4.25;;;;;9.19;85.97;100005.66;5021817;28;10471;-66
2023/03/13 00:20:40;;;;;;;;;11.00;6.50;;;;;9.17;86.11;99991.63;5026788;28;10573;-65
2023/03/13 00:23:06;;;;;;;;;9.50;9.50;;;;;9.15;85.65;99973.06;5024344;28;10603;-66
2023/03/13 00:25:33;;;;;;;;;5.00;5.00;;;;;9.15;86.22;99965.00;5028505;28;10664;-65
2023/03/13 00:27:59;;;;;;;;;9.00;6.00;;;;;9.19;85.96;99962.72;5022151;28;10470;-66
2023/03/13 00:30:26;;;;;;;;;8.25;5.25;;;;;9.18;86.42;99963.75;5020827;28;10399;-65
2023/03/13 00:32:52;;;;;;;;;12.50;9.75;;;;;9.16;86.46;99947.84;5028160;28;10519;-65
2023/03/13 00:35:19;;;;;;;;;5.50;5.00;;;;;9.16;87.01;99942.50;5029949;28;10576;-66
2023/03/13 00:37:46;;;;;;;;;10.00;9.00;;;;;9.12;87.01;99930.50;5027986;28;10449;-65
2023/03/13 00:40:12;;;;;;;;;12.75;9.00;;;;;9.16;87.11;99914.81;5021459;28;11332;-65
2023/03/13 00:42:40;;;;;;;;;5.00;2.50;;;;;9.18;87.01;99919.97;5018624;28;10664;-65
2023/03/13 00:45:06;;;;;;;;;13.00;10.50;;;;;9.09;87.56;99912.13;5026602;28;10578;-65
2023/03/13 00:47:33;;;;;;;;;8.50;8.50;;;;;9.04;88.07;99897.69;5026195;28;10559;-65
2023/03/13 00:50:00;;;;;;;;;7.00;6.50;;;;;9.07;88.77;99895.38;5021278;28;10490;-64
2023/03/13 00:52:27;;;;;;;;;9.25;5.00;;;;;9.13;87.94;99891.06;5029211;28;10687;-65
2023/03/13 00:54:54;;;;;;;;;7.50;6.75;;;;;9.17;87.91;99886.94;5028246;28;10508;-66
2023/03/13 00:57:20;;;;;;;;;14.00;10.00;;;;;9.18;87.90;99877.81;5033483;28;10487;-66
2023/03/13 00:59:47;;;;;;;;;10.00;6.50;;;;;9.14;88.81;99881.97;5023475;28;11390;-65
2023/03/13 01:02:13;;;;;;;;;8.00;7.00;;;;;9.18;88.86;99864.41;5016259;28;10628;-65
2023/03/13 01:04:40;;;;;;;;;8.50;8.50;;;;;9.23;89.04;99869.97;5026763;28;10675;-65
2023/03/13 01:07:06;;;;;;;;;12.50;8.00;;;;;9.26;88.71;99863.38;5033051;28;10845;-65
2023/03/13 01:09:33;;;;;;;;;10.75;8.75;;;;;9.24;88.61;99852.84;5029210;28;10742;-65
2023/03/13 01:11:59;;;;;;;;;11.25;9.00;;;;;9.22;88.75;99841.47;5014463;28;10710;-65
2023/03/13 01:14:26;;;;;;;;;8.75;6.75;;;;;9.20;88.64;99840.88;5026727;28;11348;-66
2023/03/13 01:16:52;;;;;;;;;8.25;8.25;;;;;9.24;89.67;99830.53;5029547;28;10536;-65
2023/03/13 01:19:18;;;;;;;;;7.25;5.75;;;;;9.26;89.55;99812.34;5028759;28;10863;-64
2023/03/13 01:21:45;;;;;;;;;8.00;8.00;;;;;9.27;89.87;99811.28;5013572;28;10590;-65
2023/03/13 01:24:12;;;;;;;;;9.25;8.75;;;;;9.27;89.68;99797.88;5021532;28;10694;-65
2023/03/13 01:26:39;;;;;;;;;10.00;6.00;;;;;9.28;89.81;99794.16;5031003;28;10772;-65
2023/03/13 01:29:06;;;;;;;;;10.50;9.00;;;;;9.25;90.43;99787.34;5023404;28;10774;-65
2023/03/13 01:31:34;;;;;;;;;12.75;10.50;;;;;9.24;90.50;99787.56;5019773;28;10615;-66
2023/03/13 01:34:04;;;;;;;;;11.75;10.00;;;;;9.31;90.79;99786.50;5032931;28;11412;-66
2023/03/13 01:36:31;;;;;;;;;9.00;9.00;;;;;9.27;91.16;99776.38;5032160;28;10641;-66
2023/03/13 01:38:59;;;;;;;;;10.25;10.25;;;;;9.26;91.15;99780.13;5027228;28;11264;-66
2023/03/13 01:41:28;;;;;;;;;10.25;10.25;;;;;9.30;92.00;99779.47;5012697;28;10718;-66
2023/03/13 01:43:56;;;;;;;;;13.75;10.75;;;;;9.26;92.08;99758.63;5021841;28;10634;-66
2023/03/13 01:46:29;;;;;;;;;9.00;6.75;;;;;9.34;92.03;99758.41;5029135;28;10647;-66
2023/03/13 01:49:10;;;;;;;;;9.50;9.50;;;;;9.45;91.70;99756.91;5027200;28;10560;-66
2023/03/13 01:52:19;;;;;;;;;12.25;9.50;;;;;9.47;91.80;99744.91;5033550;28;10672;-67
2023/03/13 01:55:06;;;;;;;;;14.00;9.00;;;;;9.48;92.21;99726.91;5029933;28;10775;-66
2023/03/13 01:57:38;;;;;;;;;8.00;6.00;;;;;9.54;91.66;99715.34;5045233;28;10768;-66
2023/03/13 02:00:11;;;;;;;;;10.50;9.00;;;;;9.50;91.78;99712.25;5029829;28;10519;-65
2023/03/13 02:02:45;;;;;;;;;10.00;10.00;;;;;9.55;92.30;99714.28;5031983;28;10634;-65
2023/03/13 02:05:14;;;;;;;;;8.25;7.00;;;;;9.59;92.08;99694.00;5020998;28;10848;-66
2023/03/13 02:07:47;;;;;;;;;10.75;10.75;;;;;9.61;91.99;99691.94;5024453;28;10623;-66
2023/03/13 02:10:16;;;;;;;;;10.50;8.00;;;;;9.62;92.97;99683.66;5015736;28;11538;-66
2023/03/13 02:12:43;;;;;;;;;10.50;8.50;;;;;9.66;93.08;99684.06;5011922;28;11390;-66
2023/03/13 02:15:16;;;;;;;;;12.25;9.00;;;;;9.64;92.75;99667.31;5028549;28;10532;-66
2023/03/13 02:17:45;;;;;;;;;10.75;9.00;;;;;9.69;93.15;99661.31;5028373;28;10629;-66
2023/03/13 02:20:13;;;;;;;;;9.75;6.50;;;;;9.71;92.78;99660.03;5029392;28;10602;-65
2023/03/13 02:22:52;;;;;;;;;12.25;8.25;;;;;9.72;92.75;99658.97;5025263;28;12457;-68
2023/03/13 02:25:22;;;;;;;;;11.25;11.00;;;;;9.74;93.53;99653.41;5045794;28;10549;-66
2023/03/13 02:27:59;;;;;;;;;15.50;10.50;;;;;9.78;93.89;99644.69;5021642;28;10729;-65
2023/03/13 02:30:27;;;;;;;;;10.75;9.25;;;;;9.79;93.06;99640.13;5030750;28;11374;-65
2023/03/13 02:32:54;;;;;;;;;13.50;12.00;;;;;9.80;94.19;99636.41;5032408;28;10617;-68
2023/03/13 02:35:22;;;;;;;;;11.75;9.50;;;;;9.85;93.76;99637.41;5029647;28;10481;-66
2023/03/13 02:37:54;;;;;;;;;9.00;7.25;;;;;9.90;94.01;99631.38;5032774;28;10526;-66
2023/03/13 02:40:36;;;;;;;;;17.00;10.75;;;;;9.89;93.95;99625.16;5029137;28;10527;-66
2023/03/13 02:43:08;;;;;;;;;12.00;10.75;;;;;9.87;94.51;99631.78;5013948;28;10454;-65
2023/03/13 02:45:34;;;;;;;;;12.75;12.75;;;;;9.83;94.38;99612.59;5030815;28;10619;-66
2023/03/13 02:48:01;;;;;;;;;15.00;12.75;;;;;9.85;94.44;99623.16;5020546;28;10725;-65
2023/03/13 02:50:28;;;;;;;;;14.50;14.50;;;;;9.90;95.03;99616.06;5023543;28;10687;-65
2023/03/13 02:53:00;;;;;;;;;16.00;15.50;;;;;9.93;94.92;99619.38;5043541;28;10642;-66
2023/03/13 02:55:38;;;;;;;;;12.50;10.25;;;;;10.00;95.27;99615.53;5032223;28;11435;-66
2023/03/13 02:58:04;;;;;;;;;13.00;13.00;;;;;9.96;94.86;99614.34;5028615;28;10612;-66
2023/03/13 03:00:34;;;;;;;;;15.50;12.50;;;;;9.94;95.20;99608.38;5018565;28;10548;-65
2023/03/13 03:03:01;;;;;;;;;19.25;12.00;;;;;9.99;95.57;99618.47;5027733;28;10647;-66
2023/03/13 03:05:27;;;;;;;;;16.00;13.75;;;;;10.06;95.34;99630.00;5017294;28;10699;-66
2023/03/13 03:07:54;;;;;;;;;18.00;14.25;;;;;10.02;95.77;99624.22;5027857;28;10743;-66
2023/03/13 03:10:22;;;;;;;;;22.75;17.00;;;;;10.06;96.12;99621.94;5025263;28;10728;-65
2023/03/13 03:12:49;;;;;;;;;18.50;15.75;;;;;10.08;96.53;99615.28;5022508;28;11290;-66
2023/03/13 03:15:16;;;;;;;;;18.00;15.50;;;;;10.13;96.02;99611.94;5032310;28;10475;-66
2023/03/13 03:17:45;;;;;;;;;17.50;14.75;;;;;10.18;96.07;99609.41;5019751;28;11383;-66
2023/03/13 03:20:11;;;;;;;;;19.50;18.00;;;;;10.21;96.29;99608.97;5026667;28;10642;-65
2023/03/13 03:22:41;;;;;;;;;18.50;17.25;;;;;10.22;96.62;99602.53;5026588;28;10653;-65
2023/03/13 03:25:08;;;;;;;;;17.00;17.00;;;;;10.33;96.55;99588.38;5026750;28;10650;-66
2023/03/13 03:27:35;;;;;;;;;15.00;14.00;;;;;10.34;96.34;99591.91;5023110;28;10740;-66
2023/03/13 03:30:05;;;;;;;;;13.00;12.75;;;;;10.36;96.21;99590.59;5029336;28;10557;-66
2023/03/13 03:32:33;;;;;;;;;11.75;10.50;;;;;10.32;96.31;99581.34;5046696;28;10482;-66
2023/03/13 03:35:00;;;;;;;;;9.75;9.25;;;;;10.40;96.72;99572.97;5024329;28;10248;-66
2023/03/13 03:37:27;;;;;;;;;14.00;13.00;;;;;10.42;96.85;99588.09;5028010;28;10240;-66
2023/03/13 03:39:53;;;;;;;;;10.50;9.75;;;;;10.46;96.81;99589.28;5021250;28;10493;-65
2023/03/13 03:42:20;;;;;;;;;14.50;14.00;;;;;10.44;96.43;99591.38;5031323;28;10337;-66
2023/03/13 03:44:46;;;;;;;;;8.25;7.00;;;;;10.51;96.62;99589.44;5014177;28;10342;-66
2023/03/13 03:47:13;;;;;;;;;10.50;9.50;;;;;10.49;96.47;99578.06;5014032;28;10177;-66
2023/03/13 03:49:43;;;;;;;;;14.00;10.25;;;;;10.50;96.42;99568.97;5020198;28;10290;-67
2023/03/13 03:52:11;;;;;;;;;8.00;8.00;;;;;10.53;96.56;99561.25;5028815;28;10323;-66
2023/03/13 03:54:41;;;;;;;;;7.00;7.00;;;;;10.56;96.30;99573.44;5028747;28;10233;-67
2023/03/13 03:57:08;;;;;;;;;8.25;8.25;;;;;10.63;96.50;99566.09;5027976;28;10404;-66
2023/03/13 03:59:36;;;;;;;;;9.25;9.25;;;;;10.59;96.40;99565.72;5025610;28;10311;-66
2023/03/13 04:02:05;;;;;;;;;6.00;5.50;;;;;10.60;96.29;99564.69;5022172;28;10172;-66
2023/03/13 04:04:33;;;;;;;;;10.25;6.00;;;;;10.58;96.27;99553.34;5026672;28;10253;-67
2023/03/13 04:07:03;;;;;;;;;9.25;7.75;;;;;10.63;96.87;99550.78;5023353;28;10980;-66
2023/03/13 04:09:31;;;;;;;;;6.00;6.00;;;;;10.60;96.63;99553.09;5020730;28;10119;-66
2023/03/13 04:12:00;;;;;;;;;6.25;6.25;;;;;10.65;96.70;99550.53;5022494;28;10334;-66
2023/03/13 04:14:28;;;;;;;;;6.50;6.50;;;;;10.64;96.92;99555.09;5016492;28;10912;-66
2023/03/13 04:16:55;;;;;;;;;6.00;4.00;;;;;10.66;96.93;99548.69;5020447;28;10234;-66
2023/03/13 04:19:21;;;;;;;;;5.50;5.50;;;;;10.63;97.17;99545.41;5025835;28;10182;-66
2023/03/13 04:21:48;;;;;;;;;5.75;5.75;;;;;10.70;97.44;99545.31;5018548;28;10081;-66
2023/03/13 04:24:17;;;;;;;;;6.50;6.25;;;;;10.76;97.12;99547.09;5020612;28;11371;-66
2023/03/13 04:26:44;;;;;;;;;5.50;5.00;;;;;10.72;96.76;99543.22;5029276;28;10216;-66
2023/03/13 04:29:10;;;;;;;;;5.25;5.25;;;;;10.78;97.31;99547.69;5025546;28;10148;-66
2023/03/13 04:32:09;;;;;;;;;6.00;6.00;;;;;10.79;96.98;99533.19;5004180;28;10215;-66
2023/03/13 04:34:57;;;;;;;;;6.50;6.00;;;;;10.82;96.91;99543.50;5012291;28;10087;-66
2023/03/13 04:37:37;;;;;;;;;9.25;8.00;;;;;10.79;97.23;99540.44;5027889;28;10084;-67
2023/03/13 04:40:24;;;;;;;;;5.75;5.00;;;;;10.84;96.87;99543.25;5023970;28;10132;-66
2023/03/13 04:43:09;;;;;;;;;10.75;7.00;;;;;10.79;97.07;99535.88;5016876;28;10788;-66
2023/03/13 04:45:53;;;;;;;;;6.00;6.00;;;;;10.84;97.04;99530.63;5028567;28;10960;-66
2023/03/13 04:48:34;;;;;;;;;5.25;4.00;;;;;10.81;97.05;99517.59;5021685;28;10149;-66
2023/03/13 04:51:15;;;;;;;;;8.00;5.75;;;;;10.83;96.99;99533.56;5009458;28;10003;-66
2023/03/13 04:54:02;;;;;;;;;7.00;6.00;;;;;10.84;96.91;99527.94;4998109;28;11304;-67
2023/03/13 04:56:51;;;;;;;;;10.25;7.50;;;;;10.82;97.34;99513.88;5024350;28;10157;-66
2023/03/13 04:59:27;;;;;;;;;9.75;6.50;;;;;10.82;97.47;99521.16;5001537;28;10967;-67
2023/03/13 05:01:56;;;;;;;;;6.50;6.00;;;;;10.82;97.29;99515.75;5027230;28;10239;-66
2023/03/13 05:04:58;;;;;;;;;9.50;7.00;;;;;10.84;97.01;99492.94;5027628;28;10167;-66
2023/03/13 05:07:54;;;;;;;;;8.75;6.75;;;;;10.86;97.21;99500.81;4955841;28;10035;-67
2023/03/13 05:10:56;;;;;;;;;8.00;8.00;;;;;10.90;97.06;99507.38;5004726;28;10238;-66
2023/03/13 05:13:42;;;;;;;;;6.50;6.50;;;;;10.90;96.74;99515.44;5022329;28;10155;-66
2023/03/13 05:16:28;;;;;;;;;7.75;7.50;;;;;10.87;97.04;99497.88;5009979;28;10100;-66
2023/03/13 05:19:13;;;;;;;;;9.00;8.00;;;;;10.91;96.64;99497.41;5027224;28;9995;-67
2023/03/13 05:21:57;;;;;;;;;16.00;9.00;;;;;10.98;95.96;99493.56;5025450;28;9991;-65
2023/03/13 05:24:33;;;;;;;;;6.00;6.00;;;;;11.06;95.83;99492.41;5027911;28;10271;-66
2023/03/13 05:26:59;;;;;;;;;8.75;6.25;;;;;11.07;95.11;99492.19;5020708;28;10171;-66
2023/03/13 05:29:34;;;;;;;;;9.25;9.00;;;;;10.97;95.13;99470.38;5024626;28;10204;-66
2023/03/13 05:32:19;;;;;;;;;7.75;7.50;;;;;10.95;95.41;99472.50;5009715;28;10223;-66
2023/03/13 05:35:03;;;;;;;;;6.50;5.75;;;;;10.96;95.26;99484.91;5022072;28;10205;-66
2023/03/13 05:37:46;;;;;;;;;7.25;7.00;;;;;10.98;94.91;99481.97;5045727;28;10281;-66
2023/03/13 05:40:36;;;;;;;;;8.00;5.75;;;;;11.09;94.06;99473.09;5050038;23;10125;-68
2023/03/13 05:43:21;;;;;;;;;6.75;6.75;;;;;11.08;93.83;99476.84;5030236;28;10016;-68
2023/03/13 05:46:05;;;;;;;;;7.25;7.25;;;;;11.08;93.68;99468.78;5028777;28;11101;-67
2023/03/13 05:48:49;;;;;;;;;6.00;5.75;;;;;11.02;93.37;99469.69;5030855;28;9978;-67
2023/03/13 05:51:54;;;;;;;;;5.50;5.50;;;;;11.01;93.13;99465.34;4986746;28;10104;-66
2023/03/13 05:54:39;;;;;;;;;11.25;6.50;;;;;10.98;92.73;99458.56;4990066;28;10082;-67
2023/03/13 05:57:30;;;;;;;;;6.75;6.00;;;;;11.07;92.08;99450.97;5022312;28;10102;-67
2023/03/13 06:00:20;;;;;;;;;8.25;6.00;;;;;11.08;91.93;99471.47;5032400;28;10261;-67
2023/03/13 06:03:07;;;;;;;;;8.00;7.00;;;;;11.04;91.52;99464.91;5008667;28;10103;-67
2023/03/13 06:05:38;;;;;;;;;8.50;5.00;;;;;11.06;91.47;99449.31;5023314;28;10043;-67
2023/03/13 06:08:14;;;;;;;;;7.25;6.00;;;;;11.12;90.95;99438.44;5025321;28;9874;-67
2023/03/13 06:10:41;;;;;;;;;6.00;5.50;;;;;11.10;90.67;99459.41;5004550;28;10068;-67
2023/03/13 06:13:07;;;;;;;;;5.00;5.00;;;;;11.19;89.77;99451.00;5014117;28;10086;-67
2023/03/13 06:15:51;;;;;;;;;5.00;2.50;;;;;11.25;89.42;99448.19;5028508;28;9858;-67
2023/03/13 06:18:34;;;;;;;;;4.25;4.25;;;;;11.31;89.08;99449.97;5033933;28;10690;-66
2023/03/13 06:21:02;;;;;;;;;3.50;3.50;;;;;11.30;88.80;99437.53;5036564;28;10103;-66
2023/03/13 06:23:29;;;;;;;;;4.50;4.00;;;;;11.35;88.45;99453.81;5020000;28;10011;-67
2023/03/13 06:25:55;;;;;;;;;5.50;3.50;;;;;11.35;88.20;99467.28;5032393;28;9879;-67
2023/03/13 06:28:22;;;;;;;;;5.75;4.00;;;;;11.31;88.50;99471.50;5022720;28;9922;-68
2023/03/13 06:30:48;;;;;;;;;10.75;5.00;;;;;11.23;89.32;99465.66;5025660;28;9930;-68
2023/03/13 06:33:15;;;;;;;;;4.00;3.25;;;;;11.24;89.29;99473.47;5028286;28;9841;-66
2023/03/13 06:35:42;;;;;;;;;5.00;4.50;;;;;11.38;88.47;99469.53;5027910;28;9921;-67
2023/03/13 06:38:23;;;;;;;;;4.25;4.25;;;;;11.38;88.37;99456.06;5027293;28;9854;-67
2023/03/13 06:40:50;;;;;;;;;4.00;4.00;;;;;11.39;88.47;99470.34;5026227;28;10112;-68
2023/03/13 06:43:17;;;;;;;;;6.75;4.75;;;;;11.32;89.04;99469.63;5028602;28;10111;-68
2023/03/13 06:45:44;;;;;;;;;7.00;5.75;;;;;11.32;89.43;99473.16;5020632;28;9964;-66
2023/03/13 06:48:10;;;;;;;;;4.50;3.00;;;;;11.27;89.97;99483.81;5014686;28;10060;-66
2023/03/13 06:50:38;;;;;;;;;6.25;3.00;;;;;11.20;90.71;99471.50;5025692;28;9902;-65
2023/03/13 06:53:19;;;;;;;;;5.00;3.75;;;;;11.20;91.24;99472.31;5027670;28;10013;-67
2023/03/13 06:55:46;;;;;;;;;2.00;2.00;;;;;11.20;91.49;99479.56;5029718;28;10101;-66
2023/03/13 06:58:12;;;;;;;;;2.00;2.00;;;;;11.10;91.97;99478.28;5027549;28;9918;-66
2023/03/13 07:00:57;;;;;;;;;5.00;5.00;;;;;11.13;92.59;99485.03;5013408;28;10664;-66
2023/03/13 07:03:24;;;;;;;;;3.75;3.75;;;;;11.14;92.88;99473.25;5023793;28;10063;-67
2023/03/13 07:05:57;;;;;;;;;4.50;4.50;;;;;11.10;93.11;99475.56;5021796;28;9955;-67
2023/03/13 07:08:25;;;;;;;;;2.00;1.75;;;;;11.08;93.17;99477.66;5030717;28;10128;-67
2023/03/13 07:10:53;;;;;;;;;5.75;5.75;;;;;11.12;93.66;99492.31;5026974;28;9841;-66
2023/03/13 07:13:21;;;;;;;;;7.00;6.00;;;;;11.14;93.44;99482.16;5027615;28;9997;-67
2023/03/13 07:15:48;;;;;;;;;8.50;4.50;;;;;11.18;93.48;99501.34;5021963;28;10177;-67
2023/03/13 07:18:14;;;;;;;;;4.00;3.25;;;;;11.18;93.56;99495.13;5042476;28;10037;-67
2023/03/13 07:20:41;;;;;;;;;3.25;3.25;;;;;11.17;93.71;99488.09;5026062;28;9852;-67
2023/03/13 07:23:08;;;;;;;;;9.50;8.25;;;;;11.13;93.60;99479.66;5025529;28;9931;-66
2023/03/13 07:25:34;;;;;;;;;6.50;5.00;;;;;11.07;94.35;99477.91;5026117;28;10133;-67
2023/03/13 07:28:01;;;;;;;;;6.25;5.00;;;;;11.04;94.41;99497.22;5023767;28;9919;-67
2023/03/13 07:30:27;;;;;;;;;5.75;5.50;;;;;11.16;94.78;99491.84;5022342;28;9988;-68
2023/03/13 07:32:54;;;;;;;;;5.25;5.25;;;;;11.17;94.35;99480.84;5026078;28;9926;-67
2023/03/13 07:35:21;;;;;;;;;5.00;5.00;;;;;11.21;94.25;99484.72;5026829;28;10625;-67
2023/03/13 07:37:47;;;;;;;;;6.00;5.75;;;;;11.20;94.15;99479.56;5028161;28;10185;-67
2023/03/13 07:40:13;;;;;;;;;5.25;5.00;;;;;11.21;93.80;99487.41;5020348;28;9865;-68
2023/03/13 07:42:41;;;;;;;;;3.75;3.00;;;;;11.18;94.35;99477.13;5011397;28;9857;-66
2023/03/13 07:45:08;;;;;;;;;3.25;3.25;;;;;11.20;94.13;99517.28;5019012;28;9862;-67
2023/03/13 07:47:34;;;;;;;;;6.00;6.00;;;;;11.04;94.52;99497.22;5028464;28;9828;-66
2023/03/13 07:50:01;;;;;;;;;5.75;4.50;;;;;11.06;94.88;99505.88;5024473;28;9873;-67
2023/03/13 07:52:28;;;;;;;;;6.75;5.00;;;;;11.05;94.81;99518.50;5024299;28;9964;-66
2023/03/13 07:54:54;;;;;;;;;7.25;5.00;;;;;11.13;94.53;99474.28;5018406;28;10036;-67
2023/03/13 07:57:21;;;;;;;;;3.50;3.50;;;;;11.17;94.51;99472.75;5020651;28;10723;-67
2023/03/13 07:59:47;;;;;;;;;7.25;7.00;;;;;11.14;94.36;99468.69;5023208;28;10003;-67
2023/03/13 08:02:15;;;;;;;;;6.50;4.00;;;;;11.14;93.87;99463.28;5027591;28;10730;-67
2023/03/13 08:04:42;;;;;;;;;7.00;6.25;;;;;11.18;93.44;99455.56;5029148;28;9931;-66
2023/03/13 08:07:09;;;;;;;;;5.00;5.00;;;;;11.18;93.17;99455.56;5030078;28;9930;-66
2023/03/13 08:09:36;;;;;;;;;5.50;5.00;;;;;11.27;93.17;99454.16;5030238;28;9843;-66
2023/03/13 08:12:03;;;;;;;;;5.25;5.25;;;;;11.34;92.38;99454.88;5022414;28;9724;-65
2023/03/13 08:14:30;;;;;;;;;4.00;4.00;;;;;11.42;92.00;99460.97;5041644;28;9868;-66
2023/03/13 08:16:57;;;;;;;;;8.50;5.25;;;;;11.37;91.64;99446.31;5029510;28;9707;-66
2023/03/13 08:19:23;;;;;;;;;8.00;5.00;;;;;11.45;91.40;99460.50;5021620;28;9744;-69
2023/03/13 08:21:50;;;;;;;;;4.00;4.00;;;;;11.39;91.26;99448.78;5021867;28;9763;-67
2023/03/13 08:24:16;;;;;;;;;8.25;6.75;;;;;11.43;90.69;99441.88;5029777;28;9843;-68
2023/03/13 08:26:43;;;;;;;;;6.50;5.00;;;;;11.48;90.57;99435.78;5028669;28;10634;-67
2023/03/13 08:29:12;;;;;;;;;2.25;2.25;;;;;11.39;91.15;99444.22;5030064;28;9892;-67
2023/03/13 08:31:44;;;;;;;;;6.25;2.75;;;;;11.45;90.71;99434.38;5024676;28;9689;-67
2023/03/13 08:34:12;;;;;;;;;6.00;4.00;;;;;11.51;90.14;99432.63;5027285;28;9593;-67
2023/03/13 08:36:38;;;;;;;;;6.50;4.50;;;;;11.51;90.29;99446.91;5028641;28;10683;-66
2023/03/13 08:39:10;;;;;;;;;1.25;1.25;;;;;11.53;90.51;99438.59;5029386;28;9844;-68
2023/03/13 08:41:39;;;;;;;;;4.50;4.50;;;;;11.45;91.00;99422.78;5027082;28;9598;-67
2023/03/13 08:44:07;;;;;;;;;5.00;5.00;;;;;11.45;91.15;99420.91;5026241;28;9786;-68
2023/03/13 08:46:35;;;;;;;;;3.00;3.00;;;;;11.50;90.99;99421.00;5024577;28;9719;-67
2023/03/13 08:49:04;;;;;;;;;5.50;5.00;;;;;11.53;90.04;99430.50;5017975;28;9736;-68
2023/03/13 08:51:30;;;;;;;;;5.25;5.00;;;;;11.48;89.90;99400.75;5012664;28;9609;-66
2023/03/13 08:53:57;;;;;;;;;4.75;4.75;;;;;11.49;89.64;99423.94;5029628;28;9700;-67
2023/03/13 08:56:27;;;;;;;;;3.00;2.00;;;;;11.57;88.26;99407.41;5018854;28;9797;-65
2023/03/13 08:58:56;;;;;;;;;3.25;1.25;;;;;11.58;87.48;99415.25;5019728;28;10008;-67
2023/03/13 09:01:24;;;;;;;;;5.25;2.00;;;;;11.70;86.21;99415.25;5021162;28;9770;-68
2023/03/13 09:03:51;;;;;;;;;2.50;2.50;;;;;11.62;85.73;99402.94;5021630;28;9764;-66
2023/03/13 09:06:18;;;;;;;;;2.00;1.75;;;;;11.74;85.77;99402.94;5023521;28;9682;-68
2023/03/13 09:08:45;;;;;;;;;6.00;2.00;;;;;12.07;84.87;99386.16;5024732;28;9554;-67
2023/03/13 09:11:14;;;;;;;;;5.00;3.75;;;;;12.17;82.73;99388.22;5023181;28;9716;-67
2023/03/13 09:13:45;;;;;;;;;2.00;1.25;;;;;12.25;82.17;99384.31;5023795;28;9665;-67
2023/03/13 09:16:15;;;;;;;;;2.25;2.00;;;;;12.34;80.55;99380.16;5021796;28;9642;-67
2023/03/13 09:18:42;;;;;;;;;4.00;0.25;;;;;12.37;79.02;99385.91;5026263;28;9532;-67
2023/03/13 09:21:21;;;;;;;;;1.00;1.00;;;;;12.47;78.68;99371.75;5025323;28;9449;-68
2023/03/13 09:23:48;;;;;;;;;2.00;1.00;;;;;12.44;76.07;99356.06;5028990;28;9442;-67
2023/03/13 09:26:16;;;;;;;;;2.00;2.00;;;;;12.47;75.51;99363.66;5027670;28;9531;-67
2023/03/13 09:28:43;;;;;;;;;1.50;1.50;;;;;12.53;74.91;99372.69;5026245;28;9402;-68
2023/03/13 09:31:28;;;;;;;;;1.00;1.00;;;;;12.57;74.40;99403.53;5023506;28;9447;-65
2023/03/13 09:33:55;;;;;;;;;2.67;1.67;;;;;12.54;74.25;99366.22;5027655;28;9409;-68
2023/03/13 09:36:22;;;;;;;;;3.00;2.00;;;;;12.52;74.26;99352.16;5027761;28;9484;-68
2023/03/13 09:38:55;;;;;;;;;5.00;2.00;;;;;12.47;74.91;99365.53;5020473;28;10081;-68
2023/03/13 09:41:37;;;;;;;;;1.00;1.00;;;;;12.43;74.26;99342.81;5012883;28;9533;-68
2023/03/13 09:44:10;;;;;;;;;3.00;2.00;;;;;12.58;73.62;99343.88;5023369;28;9251;-67
2023/03/13 09:46:51;;;;;;;;;2.25;1.00;;;;;12.77;73.85;99333.69;5030645;28;10211;-67
2023/03/13 09:49:33;;;;;;;;;2.00;2.00;;;;;12.79;74.49;99333.44;5046540;28;9532;-66
2023/03/13 09:52:13;;;;;;;;;3.25;1.75;;;;;12.76;74.44;99321.25;5032620;28;9448;-67
2023/03/13 09:54:47;;;;;;;;;1.00;1.00;;;;;12.83;74.75;99319.19;5028041;28;10118;-67
2023/03/13 09:57:30;;;;;;;;;3.00;1.00;;;;;13.05;74.96;99305.75;5031269;28;10272;-66
2023/03/13 10:00:02;;;;;;;;;1.00;1.00;;;;;13.09;75.24;99300.69;5031445;28;9401;-66
2023/03/13 10:02:35;;;;;;;;;1.00;1.00;;;;;13.20;74.64;99310.53;5031953;28;9383;-66
2023/03/13 10:05:12;;;;;;;;;1.75;1.00;;;;;13.30;74.52;99302.63;5032230;28;9440;-67
2023/03/13 10:07:39;;;;;;;;;3.67;1.00;;;;;13.25;74.59;99302.56;5031337;28;9454;-67
2023/03/13 10:10:18;;;;;;;;;2.00;1.00;;;;;13.31;73.97;99282.63;5031946;28;9406;-67
2023/03/13 10:12:47;;;;;;;;;0.00;0.00;;;;;13.27;74.58;99278.78;5028372;28;9408;-68
2023/03/13 10:15:44;;;;;;;;;0.67;0.00;;;;;13.27;74.43;99289.59;5026658;28;9918;-65
2023/03/13 10:18:22;;;;;;;;;1.00;1.00;;;;;13.30;74.15;99288.28;5026904;28;9246;-67
2023/03/13 10:20:52;;;;;;;;;1.00;1.00;;;;;13.24;74.53;99298.19;5027989;28;9300;-67
2023/03/13 10:23:37;;;;;;;;;0.00;0.00;;;;;13.26;74.69;99297.97;5028574;28;10087;-66
2023/03/13 10:26:03;;;;;;;;;1.50;1.00;;;;;13.38;74.64;99308.66;5026274;28;9347;-66
2023/03/13 10:28:30;;;;;;;;;0.33;0.33;;;;;13.37;73.74;99305.16;5027477;28;9487;-66
2023/03/13 10:31:13;;;;;;;;;0.00;0.00;;;;;13.38;73.16;99305.97;5030480;28;9389;-67
2023/03/13 10:33:41;;;;;;;;;2.00;1.00;;;;;13.24;72.96;99324.41;5027435;28;9408;-67
2023/03/13 10:36:11;;;;;;;;;1.00;0.00;;;;;13.26;73.60;99309.59;5027934;28;9243;-66
2023/03/13 10:38:53;;;;;;;;;1.00;1.00;;;;;13.40;73.12;99325.44;5027806;28;9314;-66
2023/03/13 10:41:29;;;;;;;;;1.33;1.00;;;;;13.32;70.92;99335.59;5024162;28;9303;-66
2023/03/13 10:44:03;;;;;;;;;1.33;0.67;;;;;13.46;70.61;99306.34;5025659;28;9282;-67
2023/03/13 10:46:33;;;;;;;;;1.00;1.00;;;;;13.56;69.86;99308.34;5027115;28;9062;-68
2023/03/13 10:49:03;;;;;;;;;2.00;0.67;;;;;13.70;69.65;99306.09;5026405;28;9255;-66
2023/03/13 10:51:36;;;;;;;;;1.67;1.00;;;;;13.56;68.55;99302.94;5026310;28;9354;-66
2023/03/13 10:54:26;;;;;;;;;1.00;1.00;;;;;13.58;68.67;99290.00;5024123;28;10152;-68
2023/03/13 10:57:26;;;;;;;;;2.00;1.00;;;;;13.54;69.08;99300.50;5025723;28;9169;-68
2023/03/13 10:59:53;;;;;;;;;1.00;1.00;;;;;13.44;68.60;99294.13;5025739;28;9165;-66
2023/03/13 11:02:43;;;;;;;;;1.00;1.00;;;;;13.42;69.21;99282.78;5026124;28;9331;-67
2023/03/13 11:05:22;;;;;;;;;1.00;1.00;;;;;13.59;68.98;99284.34;5026887;28;9973;-67
2023/03/13 11:07:49;;;;;;;;;1.33;1.33;;;;;13.66;67.69;99284.16;5025010;28;9258;-67
2023/03/13 11:10:19;;;;;;;;;1.67;1.00;;;;;13.66;68.22;99305.78;5026016;28;9091;-67
2023/03/13 11:12:51;;;;;;;;;3.00;1.00;;;;;13.70;68.79;99281.78;5025974;28;9241;-65
2023/03/13 11:15:23;;;;;;;;;1.33;1.00;;;;;13.73;68.41;99286.66;5024139;28;9162;-67
2023/03/13 11:18:06;;;;;;;;;2.00;1.00;;;;;13.69;68.40;99286.34;5025650;28;9166;-67
2023/03/13 11:20:38;;;;;;;;;2.67;1.00;;;;;13.60;68.17;99282.44;5024994;28;9162;-67
2023/03/13 11:23:26;;;;;;;;;0.67;0.00;;;;;13.70;68.90;99295.28;5022721;28;9332;-67
2023/03/13 11:26:05;;;;;;;;;1.67;0.00;;;;;13.64;68.10;99288.97;5024840;28;9897;-66
2023/03/13 11:29:10;;;;;;;;;1.00;1.00;;;;;13.85;67.46;99303.56;5026527;28;9107;-67
2023/03/13 11:31:45;;;;;;;;;2.00;2.00;;;;;14.04;66.08;99314.88;5023626;28;9309;-66
2023/03/13 11:34:26;;;;;;;;;2.00;2.00;;;;;13.96;63.96;99299.91;5023983;28;9310;-65
2023/03/13 11:37:01;;;;;;;;;1.00;1.00;;;;;13.97;63.67;99281.78;5024695;28;9174;-66
2023/03/13 11:40:05;;;;;;;;;2.00;2.00;;;;;14.00;62.04;99283.97;5023841;28;9175;-67
2023/03/13 11:42:48;;;;;;;;;4.00;2.33;;;;;14.04;62.95;99295.91;5024334;28;9290;-66
2023/03/13 11:45:36;;;;;;;;;2.67;1.67;;;;;14.10;62.27;99292.22;5022598;28;9300;-66
2023/03/13 11:48:15;;;;;;;;;1.00;1.00;;;;;14.17;61.96;99346.94;5024051;28;9247;-66
2023/03/13 11:51:05;;;;;;;;;1.33;1.33;;;;;14.06;60.48;99304.63;5024971;28;9178;-66
2023/03/13 11:53:54;;;;;;;;;1.33;1.33;;;;;14.16;61.49;99276.84;5023073;28;9247;-66
2023/03/13 11:56:29;;;;;;;;;5.33;3.00;;;;;14.29;60.20;99271.00;5028652;28;9140;-66
2023/03/13 11:59:19;;;;;;;;;6.00;1.00;;;;;14.42;59.89;99284.13;5026430;28;9223;-66
2023/03/13 12:01:56;;;;;;;;;2.67;1.00;;;;;14.72;59.62;99299.81;5027094;28;9036;-66